sensor_id;sensor_type;location;lat;lon;timestamp;pressure;altitude;pressure_sealevel;temperature;humidity
59686;BME280;45554;51.096;16.976;2023-08-31T00:00:39;99377.15;;;13.96;94.01
59686;BME280;45554;51.096;16.976;2023-08-31T00:03:26;99377.02;;;13.98;93.98
59686;BME280;45554;51.096;16.976;2023-08-31T00:05:53;99378.68;;;13.99;93.91
59686;BME280;45554;51.096;16.976;2023-08-31T00:08:20;99377.13;;;13.98;93.96
59686;BME280;45554;51.096;16.976;2023-08-31T00:10:55;99380.65;;;14.01;93.93
59686;BME280;45554;51.096;16.976;2023-08-31T00:13:21;99375.50;;;14.01;93.82
59686;BME280;45554;51.096;16.976;2023-08-31T00:15:48;99373.04;;;14.02;93.80
59686;BME280;45554;51.096;16.976;2023-08-31T00:18:15;99373.52;;;14.02;93.77
59686;BME280;45554;51.096;16.976;2023-08-31T00:20:42;99377.59;;;14.02;93.81
59686;BME280;45554;51.096;16.976;2023-08-31T00:23:09;99376.09;;;14.03;93.72
59686;BME280;45554;51.096;16.976;2023-08-31T00:25:36;99370.30;;;14.02;93.63
59686;BME280;45554;51.096;16.976;2023-08-31T00:28:03;99370.31;;;14.02;93.64
59686;BME280;45554;51.096;16.976;2023-08-31T00:30:31;99368.70;;;14.03;93.60
59686;BME280;45554;51.096;16.976;2023-08-31T00:32:58;99366.66;;;14.02;93.40
59686;BME280;45554;51.096;16.976;2023-08-31T00:35:28;99365.67;;;14.01;93.46
59686;BME280;45554;51.096;16.976;2023-08-31T00:37:56;99361.40;;;13.99;93.42
59686;BME280;45554;51.096;16.976;2023-08-31T00:40:26;99364.19;;;13.97;93.44
59686;BME280;45554;51.096;16.976;2023-08-31T00:42:54;99362.98;;;13.95;93.43
59686;BME280;45554;51.096;16.976;2023-08-31T00:45:20;99360.45;;;13.92;93.56
59686;BME280;45554;51.096;16.976;2023-08-31T00:47:48;99361.05;;;13.89;93.64
59686;BME280;45554;51.096;16.976;2023-08-31T00:50:15;99359.40;;;13.83;93.66
59686;BME280;45554;51.096;16.976;2023-08-31T00:52:42;99360.08;;;13.77;93.72
59686;BME280;45554;51.096;16.976;2023-08-31T00:55:10;99367.11;;;13.73;93.99
59686;BME280;45554;51.096;16.976;2023-08-31T00:57:37;99367.95;;;13.67;94.19
59686;BME280;45554;51.096;16.976;2023-08-31T01:00:04;99373.06;;;13.62;94.48
59686;BME280;45554;51.096;16.976;2023-08-31T01:02:37;99374.19;;;13.57;94.51
59686;BME280;45554;51.096;16.976;2023-08-31T01:05:21;99370.88;;;13.50;94.76
59686;BME280;45554;51.096;16.976;2023-08-31T01:07:53;99373.08;;;13.47;95.03
59686;BME280;45554;51.096;16.976;2023-08-31T01:12:54;99367.14;;;13.42;95.15
59686;BME280;45554;51.096;16.976;2023-08-31T01:15:21;99365.64;;;13.41;95.13
59686;BME280;45554;51.096;16.976;2023-08-31T01:17:49;99365.13;;;13.41;95.22
59686;BME280;45554;51.096;16.976;2023-08-31T01:20:19;99364.52;;;13.41;95.11
59686;BME280;45554;51.096;16.976;2023-08-31T01:22:56;99369.02;;;13.43;95.10
59686;BME280;45554;51.096;16.976;2023-08-31T01:25:24;99364.66;;;13.44;95.07
59686;BME280;45554;51.096;16.976;2023-08-31T01:27:50;99364.29;;;13.45;95.05
59686;BME280;45554;51.096;16.976;2023-08-31T01:30:17;99372.75;;;13.47;94.93
59686;BME280;45554;51.096;16.976;2023-08-31T01:32:44;99371.73;;;13.49;94.76
59686;BME280;45554;51.096;16.976;2023-08-31T01:35:15;99370.13;;;13.51;94.75
59686;BME280;45554;51.096;16.976;2023-08-31T01:37:46;99367.19;;;13.52;94.75
59686;BME280;45554;51.096;16.976;2023-08-31T01:40:14;99365.52;;;13.56;94.70
59686;BME280;45554;51.096;16.976;2023-08-31T01:42:45;99364.69;;;13.57;94.59
59686;BME280;45554;51.096;16.976;2023-08-31T01:45:17;99361.25;;;13.58;94.32
59686;BME280;45554;51.096;16.976;2023-08-31T01:47:48;99355.94;;;13.58;94.34
59686;BME280;45554;51.096;16.976;2023-08-31T01:50:15;99352.98;;;13.58;94.20
59686;BME280;45554;51.096;16.976;2023-08-31T01:52:41;99350.65;;;13.58;94.06
59686;BME280;45554;51.096;16.976;2023-08-31T01:55:08;99355.25;;;13.58;94.11
59686;BME280;45554;51.096;16.976;2023-08-31T01:57:35;99349.84;;;13.58;94.06
59686;BME280;45554;51.096;16.976;2023-08-31T02:00:05;99354.66;;;13.57;94.12
59686;BME280;45554;51.096;16.976;2023-08-31T02:02:40;99361.86;;;13.55;94.27
59686;BME280;45554;51.096;16.976;2023-08-31T02:05:08;99370.00;;;13.55;94.34
59686;BME280;45554;51.096;16.976;2023-08-31T02:07:35;99367.92;;;13.52;94.49
59686;BME280;45554;51.096;16.976;2023-08-31T02:10:02;99368.15;;;13.49;94.40
59686;BME280;45554;51.096;16.976;2023-08-31T02:12:29;99368.73;;;13.46;94.60
59686;BME280;45554;51.096;16.976;2023-08-31T02:14:55;99367.86;;;13.44;94.79
59686;BME280;45554;51.096;16.976;2023-08-31T02:17:22;99366.64;;;13.41;94.95
59686;BME280;45554;51.096;16.976;2023-08-31T02:19:48;99370.55;;;13.39;95.05
59686;BME280;45554;51.096;16.976;2023-08-31T02:22:15;99368.51;;;13.36;95.09
59686;BME280;45554;51.096;16.976;2023-08-31T02:24:41;99367.73;;;13.32;95.19
59686;BME280;45554;51.096;16.976;2023-08-31T02:27:10;99367.58;;;13.28;95.18
59686;BME280;45554;51.096;16.976;2023-08-31T02:29:37;99375.13;;;13.25;95.33
59686;BME280;45554;51.096;16.976;2023-08-31T02:32:05;99375.84;;;13.21;95.35
59686;BME280;45554;51.096;16.976;2023-08-31T02:34:33;99372.48;;;13.17;95.54
59686;BME280;45554;51.096;16.976;2023-08-31T02:37:00;99374.30;;;13.14;95.77
59686;BME280;45554;51.096;16.976;2023-08-31T02:39:27;99370.86;;;13.11;95.91
59686;BME280;45554;51.096;16.976;2023-08-31T02:41:53;99366.86;;;13.06;96.06
59686;BME280;45554;51.096;16.976;2023-08-31T02:44:23;99373.20;;;13.03;96.06
59686;BME280;45554;51.096;16.976;2023-08-31T02:46:49;99375.95;;;12.99;96.32
59686;BME280;45554;51.096;16.976;2023-08-31T02:49:15;99378.77;;;12.97;96.39
59686;BME280;45554;51.096;16.976;2023-08-31T02:51:42;99376.14;;;12.93;96.46
59686;BME280;45554;51.096;16.976;2023-08-31T02:54:08;99376.27;;;12.91;96.58
59686;BME280;45554;51.096;16.976;2023-08-31T02:56:35;99372.05;;;12.89;96.78
59686;BME280;45554;51.096;16.976;2023-08-31T02:59:01;99373.63;;;12.87;96.73
59686;BME280;45554;51.096;16.976;2023-08-31T03:01:28;99371.45;;;12.83;96.93
59686;BME280;45554;51.096;16.976;2023-08-31T03:03:55;99377.12;;;12.80;96.92
59686;BME280;45554;51.096;16.976;2023-08-31T03:06:22;99373.79;;;12.78;97.09
59686;BME280;45554;51.096;16.976;2023-08-31T03:08:48;99379.11;;;12.75;97.22
59686;BME280;45554;51.096;16.976;2023-08-31T03:11:15;99373.85;;;12.72;97.21
59686;BME280;45554;51.096;16.976;2023-08-31T03:13:42;99371.90;;;12.70;97.17
59686;BME280;45554;51.096;16.976;2023-08-31T03:16:09;99377.13;;;12.69;97.24
59686;BME280;45554;51.096;16.976;2023-08-31T03:18:35;99377.14;;;12.69;97.20
59686;BME280;45554;51.096;16.976;2023-08-31T03:21:02;99380.80;;;12.69;97.30
59686;BME280;45554;51.096;16.976;2023-08-31T03:23:29;99383.91;;;12.70;97.26
59686;BME280;45554;51.096;16.976;2023-08-31T03:25:56;99377.44;;;12.70;97.25
59686;BME280;45554;51.096;16.976;2023-08-31T03:28:25;99381.94;;;12.70;97.26
59686;BME280;45554;51.096;16.976;2023-08-31T03:30:55;99380.88;;;12.70;97.23
59686;BME280;45554;51.096;16.976;2023-08-31T03:33:22;99381.02;;;12.71;97.21
59686;BME280;45554;51.096;16.976;2023-08-31T03:35:49;99380.39;;;12.70;97.25
59686;BME280;45554;51.096;16.976;2023-08-31T03:38:15;99383.90;;;12.70;97.31
59686;BME280;45554;51.096;16.976;2023-08-31T03:40:42;99382.39;;;12.69;97.30
59686;BME280;45554;51.096;16.976;2023-08-31T03:43:08;99380.24;;;12.67;97.32
59686;BME280;45554;51.096;16.976;2023-08-31T03:45:36;99378.73;;;12.67;97.37
59686;BME280;45554;51.096;16.976;2023-08-31T03:48:03;99376.20;;;12.65;97.32
59686;BME280;45554;51.096;16.976;2023-08-31T03:50:30;99373.86;;;12.63;97.48
59686;BME280;45554;51.096;16.976;2023-08-31T03:52:56;99375.16;;;12.62;97.64
59686;BME280;45554;51.096;16.976;2023-08-31T03:55:23;99375.23;;;12.61;97.62
59686;BME280;45554;51.096;16.976;2023-08-31T03:57:49;99373.52;;;12.58;97.57
59686;BME280;45554;51.096;16.976;2023-08-31T04:00:20;99375.31;;;12.58;97.64
59686;BME280;45554;51.096;16.976;2023-08-31T04:02:46;99371.17;;;12.57;97.67
59686;BME280;45554;51.096;16.976;2023-08-31T04:05:17;99374.41;;;12.56;97.79
59686;BME280;45554;51.096;16.976;2023-08-31T04:07:43;99375.37;;;12.55;97.82
59686;BME280;45554;51.096;16.976;2023-08-31T04:10:10;99379.29;;;12.55;97.87
59686;BME280;45554;51.096;16.976;2023-08-31T04:12:37;99378.11;;;12.54;97.91
59686;BME280;45554;51.096;16.976;2023-08-31T04:15:04;99379.42;;;12.53;97.87
59686;BME280;45554;51.096;16.976;2023-08-31T04:17:31;99379.14;;;12.52;97.91
59686;BME280;45554;51.096;16.976;2023-08-31T04:19:58;99377.52;;;12.52;97.90
59686;BME280;45554;51.096;16.976;2023-08-31T04:22:25;99376.38;;;12.54;98.05
59686;BME280;45554;51.096;16.976;2023-08-31T04:24:52;99376.63;;;12.55;98.06
59686;BME280;45554;51.096;16.976;2023-08-31T04:27:21;99379.07;;;12.57;98.04
59686;BME280;45554;51.096;16.976;2023-08-31T04:29:50;99378.46;;;12.60;97.95
59686;BME280;45554;51.096;16.976;2023-08-31T04:32:16;99372.08;;;12.63;98.11
59686;BME280;45554;51.096;16.976;2023-08-31T04:34:43;99373.91;;;12.67;98.10
59686;BME280;45554;51.096;16.976;2023-08-31T04:37:10;99377.05;;;12.70;98.12
59686;BME280;45554;51.096;16.976;2023-08-31T04:39:36;99378.00;;;12.73;98.14
59686;BME280;45554;51.096;16.976;2023-08-31T04:42:02;99379.71;;;12.76;98.14
59686;BME280;45554;51.096;16.976;2023-08-31T04:44:31;99378.75;;;12.80;97.96
59686;BME280;45554;51.096;16.976;2023-08-31T04:46:58;99376.67;;;12.84;97.97
59686;BME280;45554;51.096;16.976;2023-08-31T04:49:24;99380.08;;;12.87;97.96
59686;BME280;45554;51.096;16.976;2023-08-31T04:51:51;99384.92;;;12.91;97.87
59686;BME280;45554;51.096;16.976;2023-08-31T04:54:17;99390.80;;;12.94;97.89
59686;BME280;45554;51.096;16.976;2023-08-31T04:56:44;99391.17;;;12.99;97.63
59686;BME280;45554;51.096;16.976;2023-08-31T04:59:10;99393.17;;;13.02;97.51
59686;BME280;45554;51.096;16.976;2023-08-31T05:01:36;99390.36;;;13.07;97.53
59686;BME280;45554;51.096;16.976;2023-08-31T05:04:03;99396.52;;;13.11;97.42
59686;BME280;45554;51.096;16.976;2023-08-31T05:06:29;99403.07;;;13.15;97.35
59686;BME280;45554;51.096;16.976;2023-08-31T05:08:56;99410.77;;;13.20;97.11
59686;BME280;45554;51.096;16.976;2023-08-31T05:11:23;99413.92;;;13.24;97.12
59686;BME280;45554;51.096;16.976;2023-08-31T05:13:50;99419.20;;;13.29;96.98
59686;BME280;45554;51.096;16.976;2023-08-31T05:16:16;99417.73;;;13.32;96.86
59686;BME280;45554;51.096;16.976;2023-08-31T05:18:42;99423.89;;;13.37;96.76
59686;BME280;45554;51.096;16.976;2023-08-31T05:21:09;99419.97;;;13.39;96.67
59686;BME280;45554;51.096;16.976;2023-08-31T05:23:35;99424.50;;;13.44;96.86
59686;BME280;45554;51.096;16.976;2023-08-31T05:26:02;99425.92;;;13.49;96.69
59686;BME280;45554;51.096;16.976;2023-08-31T05:28:28;99429.88;;;13.52;96.59
59686;BME280;45554;51.096;16.976;2023-08-31T05:30:56;99432.00;;;13.56;96.56
59686;BME280;45554;51.096;16.976;2023-08-31T05:33:23;99430.86;;;13.59;96.38
59686;BME280;45554;51.096;16.976;2023-08-31T05:35:51;99435.64;;;13.64;96.46
59686;BME280;45554;51.096;16.976;2023-08-31T05:38:18;99440.77;;;13.68;96.36
59686;BME280;45554;51.096;16.976;2023-08-31T05:40:44;99442.16;;;13.72;96.31
59686;BME280;45554;51.096;16.976;2023-08-31T05:43:14;99439.56;;;13.76;96.13
59686;BME280;45554;51.096;16.976;2023-08-31T05:45:41;99440.82;;;13.80;96.02
59686;BME280;45554;51.096;16.976;2023-08-31T05:48:07;99449.38;;;13.85;95.95
59686;BME280;45554;51.096;16.976;2023-08-31T05:50:34;99449.09;;;13.89;95.69
59686;BME280;45554;51.096;16.976;2023-08-31T05:53:03;99446.90;;;13.90;95.52
59686;BME280;45554;51.096;16.976;2023-08-31T05:55:30;99450.66;;;13.91;95.50
59686;BME280;45554;51.096;16.976;2023-08-31T05:57:58;99454.98;;;13.92;95.30
59686;BME280;45554;51.096;16.976;2023-08-31T06:00:24;99464.22;;;13.92;95.35
59686;BME280;45554;51.096;16.976;2023-08-31T06:02:50;99463.95;;;13.93;95.40
59686;BME280;45554;51.096;16.976;2023-08-31T06:05:17;99467.05;;;13.93;95.39
59686;BME280;45554;51.096;16.976;2023-08-31T06:07:44;99465.42;;;13.94;95.34
59686;BME280;45554;51.096;16.976;2023-08-31T06:10:11;99466.02;;;13.95;95.28
59686;BME280;45554;51.096;16.976;2023-08-31T06:12:38;99469.12;;;13.96;95.18
59686;BME280;45554;51.096;16.976;2023-08-31T06:15:07;99468.63;;;13.98;95.11
59686;BME280;45554;51.096;16.976;2023-08-31T06:17:34;99466.55;;;13.99;95.08
59686;BME280;45554;51.096;16.976;2023-08-31T06:20:01;99465.83;;;14.02;95.02
59686;BME280;45554;51.096;16.976;2023-08-31T06:22:28;99469.27;;;14.05;95.09
59686;BME280;45554;51.096;16.976;2023-08-31T06:24:54;99466.19;;;14.10;95.26
59686;BME280;45554;51.096;16.976;2023-08-31T06:27:21;99462.41;;;14.16;95.04
59686;BME280;45554;51.096;16.976;2023-08-31T06:29:48;99468.67;;;14.21;94.85
59686;BME280;45554;51.096;16.976;2023-08-31T06:32:15;99473.86;;;14.26;94.68
59686;BME280;45554;51.096;16.976;2023-08-31T06:34:42;99466.66;;;14.33;94.59
59686;BME280;45554;51.096;16.976;2023-08-31T06:37:08;99475.41;;;14.40;94.42
59686;BME280;45554;51.096;16.976;2023-08-31T06:39:34;99474.23;;;14.47;94.36
59686;BME280;45554;51.096;16.976;2023-08-31T06:42:02;99478.25;;;14.57;94.33
59686;BME280;45554;51.096;16.976;2023-08-31T06:44:30;99481.38;;;14.65;94.04
59686;BME280;45554;51.096;16.976;2023-08-31T06:46:57;99481.98;;;14.75;93.98
59686;BME280;45554;51.096;16.976;2023-08-31T06:49:23;99484.98;;;14.85;93.40
59686;BME280;45554;51.096;16.976;2023-08-31T06:51:50;99480.86;;;14.95;93.20
59686;BME280;45554;51.096;16.976;2023-08-31T06:54:16;99481.59;;;15.04;92.80
59686;BME280;45554;51.096;16.976;2023-08-31T06:56:43;99491.50;;;15.17;92.31
59686;BME280;45554;51.096;16.976;2023-08-31T06:59:09;99491.44;;;15.28;92.07
59686;BME280;45554;51.096;16.976;2023-08-31T07:01:38;99488.19;;;15.39;91.72
59686;BME280;45554;51.096;16.976;2023-08-31T07:04:05;99489.48;;;15.50;91.78
59686;BME280;45554;51.096;16.976;2023-08-31T07:06:33;99487.91;;;15.62;91.34
59686;BME280;45554;51.096;16.976;2023-08-31T07:09:00;99490.45;;;15.75;91.13
59686;BME280;45554;51.096;16.976;2023-08-31T07:11:26;99491.80;;;15.94;90.15
59686;BME280;45554;51.096;16.976;2023-08-31T07:13:53;99501.36;;;16.16;87.95
59686;BME280;45554;51.096;16.976;2023-08-31T07:16:20;99504.52;;;16.35;86.58
59686;BME280;45554;51.096;16.976;2023-08-31T07:18:46;99501.45;;;16.51;85.30
59686;BME280;45554;51.096;16.976;2023-08-31T07:21:13;99505.92;;;16.67;84.48
59686;BME280;45554;51.096;16.976;2023-08-31T07:23:40;99505.33;;;16.77;83.38
59686;BME280;45554;51.096;16.976;2023-08-31T07:26:07;99515.49;;;16.87;82.33
59686;BME280;45554;51.096;16.976;2023-08-31T07:28:34;99514.30;;;16.96;81.27
59686;BME280;45554;51.096;16.976;2023-08-31T07:31:05;99512.51;;;17.05;81.50
59686;BME280;45554;51.096;16.976;2023-08-31T07:33:32;99520.08;;;17.14;80.69
59686;BME280;45554;51.096;16.976;2023-08-31T07:36:04;99524.04;;;17.23;79.83
59686;BME280;45554;51.096;16.976;2023-08-31T07:38:32;99525.83;;;17.28;79.70
59686;BME280;45554;51.096;16.976;2023-08-31T07:40:59;99527.66;;;17.32;79.96
59686;BME280;45554;51.096;16.976;2023-08-31T07:43:26;99531.27;;;17.35;79.78
59686;BME280;45554;51.096;16.976;2023-08-31T07:45:56;99534.35;;;17.39;79.37
59686;BME280;45554;51.096;16.976;2023-08-31T07:48:25;99534.73;;;17.47;79.40
59686;BME280;45554;51.096;16.976;2023-08-31T07:50:52;99539.55;;;17.58;78.85
59686;BME280;45554;51.096;16.976;2023-08-31T07:53:19;99538.52;;;17.70;79.76
59686;BME280;45554;51.096;16.976;2023-08-31T07:55:52;99542.71;;;17.83;77.58
59686;BME280;45554;51.096;16.976;2023-08-31T07:58:23;99552.23;;;17.97;75.17
59686;BME280;45554;51.096;16.976;2023-08-31T08:00:52;99556.67;;;18.04;73.16
59686;BME280;45554;51.096;16.976;2023-08-31T08:03:18;99553.13;;;18.08;71.78
59686;BME280;45554;51.096;16.976;2023-08-31T08:05:46;99553.71;;;18.13;72.89
59686;BME280;45554;51.096;16.976;2023-08-31T08:08:12;99561.03;;;18.18;71.51
59686;BME280;45554;51.096;16.976;2023-08-31T08:10:45;99562.75;;;18.17;71.11
59686;BME280;45554;51.096;16.976;2023-08-31T08:13:52;99557.09;;;18.09;71.49
59686;BME280;45554;51.096;16.976;2023-08-31T08:16:25;99558.55;;;18.07;72.30
59686;BME280;45554;51.096;16.976;2023-08-31T08:18:52;99570.08;;;18.09;72.04
59686;BME280;45554;51.096;16.976;2023-08-31T08:21:20;99570.95;;;18.11;71.96
59686;BME280;45554;51.096;16.976;2023-08-31T08:23:46;99565.30;;;18.16;71.99
59686;BME280;45554;51.096;16.976;2023-08-31T08:26:13;99572.34;;;18.26;71.99
59686;BME280;45554;51.096;16.976;2023-08-31T08:28:39;99570.91;;;18.33;70.99
59686;BME280;45554;51.096;16.976;2023-08-31T08:31:06;99568.59;;;18.35;70.67
59686;BME280;45554;51.096;16.976;2023-08-31T08:33:33;99572.94;;;18.36;70.50
59686;BME280;45554;51.096;16.976;2023-08-31T08:36:00;99578.23;;;18.31;70.55
59686;BME280;45554;51.096;16.976;2023-08-31T08:38:27;99585.10;;;18.24;71.55
59686;BME280;45554;51.096;16.976;2023-08-31T08:40:53;99588.35;;;18.11;72.38
59686;BME280;45554;51.096;16.976;2023-08-31T08:43:22;99593.34;;;17.92;72.74
59686;BME280;45554;51.096;16.976;2023-08-31T08:45:50;99603.63;;;17.69;73.04
59686;BME280;45554;51.096;16.976;2023-08-31T08:48:17;99611.29;;;17.46;73.22
59686;BME280;45554;51.096;16.976;2023-08-31T08:50:45;99615.86;;;17.28;73.95
59686;BME280;45554;51.096;16.976;2023-08-31T08:53:11;99624.92;;;17.14;74.54
59686;BME280;45554;51.096;16.976;2023-08-31T08:55:40;99631.92;;;17.03;74.89
59686;BME280;45554;51.096;16.976;2023-08-31T08:58:07;99632.05;;;16.88;74.41
59686;BME280;45554;51.096;16.976;2023-08-31T09:00:33;99630.88;;;16.78;74.73
59686;BME280;45554;51.096;16.976;2023-08-31T09:03:00;99629.52;;;16.65;74.45
59686;BME280;45554;51.096;16.976;2023-08-31T09:05:32;99627.31;;;16.60;75.05
59686;BME280;45554;51.096;16.976;2023-08-31T09:08:05;99629.89;;;16.59;75.47
59686;BME280;45554;51.096;16.976;2023-08-31T09:10:37;99630.84;;;16.58;75.43
59686;BME280;45554;51.096;16.976;2023-08-31T09:13:11;99635.48;;;16.58;75.70
59686;BME280;45554;51.096;16.976;2023-08-31T09:15:44;99637.57;;;16.60;75.95
59686;BME280;45554;51.096;16.976;2023-08-31T09:20:46;99648.12;;;16.69;74.11
59686;BME280;45554;51.096;16.976;2023-08-31T09:23:16;99659.05;;;16.67;73.80
59686;BME280;45554;51.096;16.976;2023-08-31T09:25:46;99663.55;;;16.59;73.10
59686;BME280;45554;51.096;16.976;2023-08-31T09:28:18;99668.61;;;16.43;73.94
59686;BME280;45554;51.096;16.976;2023-08-31T09:30:45;99677.30;;;16.29;76.34
59686;BME280;45554;51.096;16.976;2023-08-31T09:33:16;99692.43;;;16.08;79.34
59686;BME280;45554;51.096;16.976;2023-08-31T09:35:50;99698.57;;;15.77;81.11
59686;BME280;45554;51.096;16.976;2023-08-31T09:38:17;99692.65;;;15.41;83.61
59686;BME280;45554;51.096;16.976;2023-08-31T09:40:43;99702.88;;;15.02;84.84
59686;BME280;45554;51.096;16.976;2023-08-31T09:43:18;99714.00;;;14.72;86.36
59686;BME280;45554;51.096;16.976;2023-08-31T09:45:44;99716.64;;;14.52;87.56
59686;BME280;45554;51.096;16.976;2023-08-31T09:48:13;99716.13;;;14.38;89.86
59686;BME280;45554;51.096;16.976;2023-08-31T09:50:40;99717.95;;;14.26;90.55
59686;BME280;45554;51.096;16.976;2023-08-31T09:53:09;99719.38;;;14.20;90.46
59686;BME280;45554;51.096;16.976;2023-08-31T09:55:38;99718.54;;;14.17;91.51
59686;BME280;45554;51.096;16.976;2023-08-31T09:58:05;99716.52;;;14.20;91.10
59686;BME280;45554;51.096;16.976;2023-08-31T10:00:42;99716.41;;;14.26;91.17
59686;BME280;45554;51.096;16.976;2023-08-31T10:03:08;99715.73;;;14.30;90.80
59686;BME280;45554;51.096;16.976;2023-08-31T10:05:36;99719.77;;;14.32;90.75
59686;BME280;45554;51.096;16.976;2023-08-31T10:08:03;99719.88;;;14.37;90.86
59686;BME280;45554;51.096;16.976;2023-08-31T10:10:30;99722.75;;;14.44;90.32
59686;BME280;45554;51.096;16.976;2023-08-31T10:12:56;99727.60;;;14.45;90.21
59686;BME280;45554;51.096;16.976;2023-08-31T10:15:24;99728.20;;;14.48;90.49
59686;BME280;45554;51.096;16.976;2023-08-31T10:17:52;99731.92;;;14.54;90.50
59686;BME280;45554;51.096;16.976;2023-08-31T10:20:19;99723.42;;;14.62;90.13
59686;BME280;45554;51.096;16.976;2023-08-31T10:22:45;99722.91;;;14.70;89.95
59686;BME280;45554;51.096;16.976;2023-08-31T10:25:12;99726.41;;;14.82;89.96
59686;BME280;45554;51.096;16.976;2023-08-31T10:27:39;99737.80;;;14.94;89.83
59686;BME280;45554;51.096;16.976;2023-08-31T10:30:27;99728.10;;;15.00;89.77
59686;BME280;45554;51.096;16.976;2023-08-31T10:33:19;99736.96;;;15.15;88.73
59686;BME280;45554;51.096;16.976;2023-08-31T10:35:48;99737.27;;;15.28;86.84
59686;BME280;45554;51.096;16.976;2023-08-31T10:38:15;99733.25;;;15.43;86.59
59686;BME280;45554;51.096;16.976;2023-08-31T10:40:41;99734.38;;;15.59;86.14
59686;BME280;45554;51.096;16.976;2023-08-31T10:43:14;99736.77;;;15.79;85.89
59686;BME280;45554;51.096;16.976;2023-08-31T10:45:44;99729.71;;;16.00;84.62
59686;BME280;45554;51.096;16.976;2023-08-31T10:48:10;99724.15;;;16.21;83.98
59686;BME280;45554;51.096;16.976;2023-08-31T10:50:44;99727.86;;;16.43;83.16
59686;BME280;45554;51.096;16.976;2023-08-31T10:53:11;99730.58;;;16.61;79.53
59686;BME280;45554;51.096;16.976;2023-08-31T10:55:52;99728.41;;;16.75;77.88
59686;BME280;45554;51.096;16.976;2023-08-31T10:58:19;99724.01;;;16.87;76.16
59686;BME280;45554;51.096;16.976;2023-08-31T11:00:46;99722.02;;;16.95;75.88
59686;BME280;45554;51.096;16.976;2023-08-31T11:03:12;99723.42;;;17.05;74.69
59686;BME280;45554;51.096;16.976;2023-08-31T11:05:50;99723.18;;;17.14;74.20
59686;BME280;45554;51.096;16.976;2023-08-31T11:08:16;99725.02;;;17.17;73.48
59686;BME280;45554;51.096;16.976;2023-08-31T11:10:46;99721.27;;;17.20;73.68
59686;BME280;45554;51.096;16.976;2023-08-31T11:13:16;99711.59;;;17.26;75.08
59686;BME280;45554;51.096;16.976;2023-08-31T11:15:45;99706.98;;;17.40;73.70
59686;BME280;45554;51.096;16.976;2023-08-31T11:18:12;99712.60;;;17.52;73.14
59686;BME280;45554;51.096;16.976;2023-08-31T11:20:39;99712.95;;;17.64;73.65
59686;BME280;45554;51.096;16.976;2023-08-31T11:23:06;99712.00;;;17.74;71.92
59686;BME280;45554;51.096;16.976;2023-08-31T11:25:32;99713.51;;;17.77;71.00
59686;BME280;45554;51.096;16.976;2023-08-31T11:28:00;99705.70;;;17.75;71.81
59686;BME280;45554;51.096;16.976;2023-08-31T11:30:28;99702.56;;;17.78;71.32
59686;BME280;45554;51.096;16.976;2023-08-31T11:32:55;99699.71;;;17.76;69.84
59686;BME280;45554;51.096;16.976;2023-08-31T11:35:22;99693.71;;;17.72;68.41
59686;BME280;45554;51.096;16.976;2023-08-31T11:37:49;99695.49;;;17.74;68.72
59686;BME280;45554;51.096;16.976;2023-08-31T11:40:19;99704.65;;;17.82;70.39
59686;BME280;45554;51.096;16.976;2023-08-31T11:42:47;99703.77;;;17.95;69.63
59686;BME280;45554;51.096;16.976;2023-08-31T11:45:13;99700.88;;;18.09;68.69
59686;BME280;45554;51.096;16.976;2023-08-31T11:47:41;99699.46;;;18.22;67.56
59686;BME280;45554;51.096;16.976;2023-08-31T11:50:09;99699.17;;;18.35;66.78
59686;BME280;45554;51.096;16.976;2023-08-31T11:52:37;99698.77;;;18.44;66.91
59686;BME280;45554;51.096;16.976;2023-08-31T11:55:10;99695.75;;;18.66;67.37
59686;BME280;45554;51.096;16.976;2023-08-31T11:57:36;99693.95;;;18.92;66.11
59686;BME280;45554;51.096;16.976;2023-08-31T12:00:03;99692.45;;;19.13;65.75
59686;BME280;45554;51.096;16.976;2023-08-31T12:02:35;99705.29;;;19.35;64.18
59686;BME280;45554;51.096;16.976;2023-08-31T12:05:02;99711.02;;;19.46;61.96
59686;BME280;45554;51.096;16.976;2023-08-31T12:07:28;99708.64;;;19.53;60.94
59686;BME280;45554;51.096;16.976;2023-08-31T12:10:07;99709.52;;;19.50;59.81
59686;BME280;45554;51.096;16.976;2023-08-31T12:12:33;99702.75;;;19.43;59.76
59686;BME280;45554;51.096;16.976;2023-08-31T12:15:01;99703.10;;;19.54;59.50
59686;BME280;45554;51.096;16.976;2023-08-31T12:17:30;99695.08;;;19.55;60.42
59686;BME280;45554;51.096;16.976;2023-08-31T12:20:05;99700.67;;;19.55;59.54
59686;BME280;45554;51.096;16.976;2023-08-31T12:22:33;99697.86;;;19.53;59.83
59686;BME280;45554;51.096;16.976;2023-08-31T12:24:59;99699.99;;;19.70;59.68
59686;BME280;45554;51.096;16.976;2023-08-31T12:27:25;99695.50;;;19.86;59.20
59686;BME280;45554;51.096;16.976;2023-08-31T12:29:52;99694.39;;;20.11;59.48
59686;BME280;45554;51.096;16.976;2023-08-31T12:32:18;99692.30;;;20.36;58.94
59686;BME280;45554;51.096;16.976;2023-08-31T12:34:45;99688.77;;;20.58;58.33
59686;BME280;45554;51.096;16.976;2023-08-31T12:37:12;99680.23;;;20.75;59.26
59686;BME280;45554;51.096;16.976;2023-08-31T12:39:39;99681.52;;;20.96;55.41
59686;BME280;45554;51.096;16.976;2023-08-31T12:42:05;99681.88;;;21.08;53.76
59686;BME280;45554;51.096;16.976;2023-08-31T12:44:48;99677.08;;;21.19;53.07
59686;BME280;45554;51.096;16.976;2023-08-31T12:47:15;99676.73;;;21.31;53.15
59686;BME280;45554;51.096;16.976;2023-08-31T12:49:41;99672.09;;;21.45;53.73
59686;BME280;45554;51.096;16.976;2023-08-31T12:52:08;99671.11;;;21.66;53.58
59686;BME280;45554;51.096;16.976;2023-08-31T12:54:34;99664.20;;;21.91;53.83
59686;BME280;45554;51.096;16.976;2023-08-31T12:57:04;99667.23;;;22.24;53.34
59686;BME280;45554;51.096;16.976;2023-08-31T12:59:31;99668.61;;;22.54;51.82